Hauptseite
METAR-TAF:

METAR-TAF

Flughäfen :

Cognac, Frankreich

Militärflugplatz Cognac-Châteaubernard

Breite: 45-40N, Länge: 000-19W, Höhe: 30 m

Beobachtung

Neuester Wetterbericht von vor 14 Minuten, um 09:00 UTC
Wind 3 kt aus West/Südwest, variierte zwischen Süd/Südost und Nordwest
Temperatur 16°C
Luftfeuchtigkeit 72%
Luftdruck 1021 hPa
Sichtweite 10 km oder mehr
Durchbrochene Bewölkung in der Höhe von 1800 ft

METAR: LFBG 230900Z AUTO 24003KT 160V320 9999 BKN018 16/11 Q1021 NOSIG

Zeit: 11:14 (09:14 UTC)

Prognose

Neuester Wetterbericht von vor 1 Stunde und 14 Minuten, um 08:00 UTC
Gültige Prognose vom 23 um 09 UTC bis 24 um 09 UTC
Wind 7 kt aus West/Nordwest
Sichtweite 10 km oder mehr
Durchbrochene Bewölkung in der Höhe von 1500 ft
Übergehend zu
vom 23 um 10 UTC bis 23 um 12 UTC
Durchbrochene Bewölkung in der Höhe von 3000 ft

TAF: LFBG 230800Z 2309/2409 29007KT 9999 BKN015 BECMG 2310/2312 BKN030

Wetterbeobachtungen und Prognosen von mehr als 4000 Flughäfen (METAR und TAF Bericht).

Die verfügbaren Stationen werden durch gelbe und rote Markierungen auf der Karte dargestellt.

Führen Sie die Maus auf sie, um den Namen der Station zu sehen.

Darauf klicken, um die Beobachtung von Wetterbeobachtungen und Prognosen zu sehen.

Um die Karte zu ändern : klicken Sie auf den grünen Tasten mit einem schwarzen Kreuz Zum Vergrößern, auf den grünen Button mit einem Gedankenstrich zu verkleinern, oder auf die grünen Pfeile für benachbarte Karten.


METAR-TAF: